LIRP

Pisa International Airport

Airport
ICAO code
LIRP
IATA Code
PSA
Summary
ICAO Region
EUR
ICAO Territory
Location

San Giusto, Tuscany

Serving
Pisa
Elevation
6 ft
Coordinates
43° 41' 5" N , 10° 23' 42" E
KCC
Metar
Observation
LIRP 270945Z 25019KT 9999 SCT030 22/13 Q1001 NOSIG
Station
Pisa / S. Giusto
Date/Time
2022-09-27 09:45:00
Wind direction
250°
Wind speed
19 kts
Lowest cloud amount
scattered clouds
Temperature
22°C
Dew point
13°C
Humidity
56%
QNH
1001 hPa
Weather condition
n/a

Galileo Galilei Airport is an airport located in Pisa, Italy. It is one of the two main airports in Tuscany, together with Peretola Airport in Florence. It is also known as Pisa-San Giusto Airport for its location in the San Giusto district, 1 km from the Pisa city centre.

Climatology

Humid “subtropical” climate (Köppen climate classification Cfa) - characterized by hot, humid summers and cool winters. Significant amounts of precipitation occur in all seasons in most areas. Winter rainfall (and sometimes snowfall) is associated with large storms that the westerlies steer from west to east. Most summer rainfall occurs during thunderstorms.

Runways

Designator Length Width Surface Rops
04L/22R 2792 43 ASP Yes/Yes
04R/22L 2993 45 ASP Yes/Yes

Airport map

Aerial View

SKYbrary Partners:

Safety knowledge contributed by: